Tropical Cyclones
[Index]
Main Index Home Page Stock Weather Photos Extreme Storms Discussion Storm News and Storm Chasing Reports Tropical Cyclones / Hurricanes / Typhoons Weather Data and Links Wild Fires / Bushfires Weather Observation Techniques Weather Picture Catalogue Tornado Pictures and Reports Stock Video Footage and DVDs for sale
Season 1996-1997 Tropical Cyclone OPHELIA Track Map
Season 1996-1997 Summaries: [BoM-AU] [JTWC-AU] [JTWC-SIO] [JTWC-SPAC] [JTWC-SH]
<<- Previous TC | JTWC 1996-1997 Season | Next TC ->>

click for intensity scale information  Lat/long Grid: Show Hide

 Date Labels: Show Hide

Joint Typhoon Warning Centre Cyclone Data

Name: OPHELIA

13 Dec 1996 18:00 UTC to 27 Dec 1996 06:00 UTC

    date/time    lat    long     hPa   cat  kts
1996-12-13 18   10.0   109.4                  25          
1996-12-14 00   10.0   108.9                  25          
1996-12-14 06   10.0   108.4                  25          
1996-12-14 12   10.0   108.0                  30          
1996-12-14 18   10.2   108.1                  35          
1996-12-15 00   10.3   108.3            1     40          
1996-12-15 06   10.4   108.7            1     45          
1996-12-15 12   10.6   109.1            1     45          
1996-12-15 18   11.0   109.7            1     50          
1996-12-16 00   11.5   110.4            2     55          
1996-12-16 06   12.1   111.0            2     55          
1996-12-16 12   12.7   111.9            2     55          
1996-12-16 18   13.2   113.0            2     55          
1996-12-17 00   13.5   114.0            2     55          
1996-12-17 06   13.6   114.9            2     55          
1996-12-17 12   13.5   115.5            1     50          
1996-12-17 18   13.5   116.2            1     45          
1996-12-18 00   13.6   116.8            1     45          
1996-12-18 06   13.7   117.2            1     40          
1996-12-18 12   14.0   117.5            1     40          
1996-12-18 18   14.2   117.6            1     40          
1996-12-19 00   14.4   117.7                  35          
1996-12-19 06   14.6   117.7                  35          
1996-12-19 12   14.7   117.6                  35          
1996-12-19 18   14.8   117.3                  35          
1996-12-20 00   14.9   116.9                  30          
1996-12-20 06   15.1   116.5                  30          
1996-12-20 12   15.5   116.0                  25          
1996-12-20 18   15.7   115.6                  25          
1996-12-21 00   15.8   115.3                  25          
1996-12-21 06   15.8   115.2                  25          
1996-12-21 12   15.8   115.1                  25          
1996-12-21 18   15.8   115.0                  25          
1996-12-22 00   15.8   114.8                  25          
1996-12-22 06   15.8   114.6                  25          
1996-12-22 12   15.8   114.3                  25          
1996-12-22 18   15.8   113.9                  25          
1996-12-23 00   15.6   113.4                  25          
1996-12-23 06   15.4   113.1                  25          
1996-12-23 12   15.3   112.9                  25          
1996-12-23 18   14.9   112.9                  25          
1996-12-24 00   14.6   113.1                  25          
1996-12-24 06   14.3   113.5                  25          
1996-12-24 12   14.3   113.8                  25          
1996-12-24 18   14.7   113.7                  25          
1996-12-25 00   15.0   113.5                  25          
1996-12-25 06   15.5   113.2                  30          
1996-12-25 12   15.9   112.9                  30          
1996-12-25 18   16.1   112.7                  30          
1996-12-26 00   16.3   112.5                  30          
1996-12-26 06   16.5   112.1                  30          
1996-12-26 12   16.6   111.6                  25          
1996-12-26 18   16.7   111.1                  25          
1996-12-27 00   16.9   110.6                  25          
1996-12-27 06   17.1   110.1                  25          
Winds are 1-min average.

Tropical cyclone tracks developed by Michael Bath using data from the Joint Typhoon Warning Centre Best Tracks and Google Maps.


[Australian Severe Weather index] [Copyright Notice] [Email Contacts] [Search This Site] [Privacy Policy]
Document: tropical_cyclone_ophelia.htm Updated: 18 September 2016